createdAt,value
2018-06-28T00:00:28.980Z,77.95
2018-06-28T00:01:29.014Z,78.15
2018-06-28T00:02:29.048Z,79.01
2018-06-28T00:03:29.084Z,77.95
2018-06-28T00:04:29.117Z,78.82
2018-06-28T00:05:29.153Z,78.92
2018-06-28T00:06:29.189Z,79.30
2018-06-28T00:07:29.219Z,78.82
2018-06-28T00:08:29.254Z,79.01
2018-06-28T00:09:29.288Z,78.82
2018-06-28T00:10:29.324Z,79.36
2018-06-28T00:11:29.358Z,79.78
2018-06-28T00:12:29.392Z,79.55
2018-06-28T00:13:29.425Z,79.83
2018-06-28T00:14:29.462Z,80.22
2018-06-28T00:15:29.496Z,80.41
2018-06-28T00:16:29.530Z,80.22
2018-06-28T00:17:29.564Z,80.22
2018-06-28T00:18:29.599Z,79.83
2018-06-28T00:19:29.634Z,79.64
2018-06-28T00:20:29.667Z,80.32
2018-06-28T00:21:29.701Z,79.26
2018-06-28T00:22:29.736Z,79.64
2018-06-28T00:23:29.771Z,79.55
2018-06-28T00:24:29.805Z,79.16
2018-06-28T00:25:29.839Z,78.97
2018-06-28T00:26:29.874Z,78.72
2018-06-28T00:27:29.908Z,78.44
2018-06-28T00:28:29.942Z,77.95
2018-06-28T00:29:29.976Z,78.53
2018-06-28T00:30:30.012Z,79.21
2018-06-28T00:31:30.046Z,79.55
2018-06-28T00:32:30.081Z,80.26
2018-06-28T00:33:30.117Z,80.89
2018-06-28T00:34:30.149Z,79.30
2018-06-28T00:35:30.183Z,80.12
2018-06-28T00:36:30.217Z,80.51
2018-06-28T00:37:30.252Z,79.36
2018-06-28T00:38:30.287Z,79.64
2018-06-28T00:39:30.321Z,79.26
2018-06-28T00:40:30.360Z,79.55
2018-06-28T00:41:30.393Z,79.78
2018-06-28T00:42:30.423Z,80.32
2018-06-28T00:43:30.457Z,79.83
2018-06-28T00:44:30.492Z,79.93
2018-06-28T00:45:30.527Z,80.22
2018-06-28T00:46:30.560Z,81.08
2018-06-28T00:47:30.596Z,80.60
2018-06-28T00:48:30.628Z,80.89
2018-06-28T00:49:30.665Z,81.08
2018-06-28T00:50:30.698Z,82.52
2018-06-28T00:51:30.732Z,82.62
2018-06-28T00:52:30.766Z,82.96
2018-06-28T00:53:30.808Z,83.92
2018-06-28T00:54:30.835Z,83.63
2018-06-28T00:55:30.869Z,84.01
2018-06-28T00:56:30.903Z,84.88
2018-06-28T00:57:30.937Z,85.06
2018-06-28T00:58:30.970Z,84.92
2018-06-28T00:59:31.005Z,85.41
2018-06-28T01:00:31.092Z,85.60
2018-06-28T01:01:31.072Z,85.88
2018-06-28T01:02:31.111Z,86.08
2018-06-28T01:03:31.142Z,86.27
2018-06-28T01:04:31.174Z,86.84
2018-06-28T01:05:31.208Z,87.03
2018-06-28T01:06:31.270Z,86.36
2018-06-28T01:07:31.277Z,86.94
2018-06-28T01:08:31.311Z,86.27
2018-06-28T01:09:31.346Z,86.17
2018-06-28T01:10:31.380Z,86.36
2018-06-28T01:11:31.414Z,85.88
2018-06-28T01:12:31.446Z,86.55
2018-06-28T01:13:31.481Z,87.70
2018-06-28T01:14:31.515Z,86.27
2018-06-28T01:15:31.549Z,86.94
2018-06-28T01:16:31.582Z,87.61
2018-06-28T01:17:31.617Z,87.41
2018-06-28T01:18:31.651Z,87.41
2018-06-28T01:19:31.686Z,88.76
2018-06-28T01:20:31.718Z,90.15
2018-06-28T01:21:31.752Z,90.63
2018-06-28T01:22:31.788Z,90.44
2018-06-28T01:23:31.820Z,92.44
2018-06-28T01:24:31.855Z,91.30
2018-06-28T01:25:31.889Z,90.72
2018-06-28T01:26:31.923Z,90.63
2018-06-28T01:27:31.956Z,90.24
2018-06-28T01:28:31.989Z,90.82
2018-06-28T01:29:32.025Z,92.06
2018-06-28T01:30:32.057Z,92.73
2018-06-28T01:31:32.315Z,91.39
2018-06-28T01:32:32.126Z,91.30
2018-06-28T01:33:32.159Z,91.77
2018-06-28T01:34:32.194Z,91.87
2018-06-28T01:35:32.230Z,92.25
2018-06-28T01:36:32.464Z,92.83
2018-06-28T01:37:32.296Z,91.97
2018-06-28T01:38:32.331Z,91.97
2018-06-28T01:39:32.363Z,91.58
2018-06-28T01:40:32.420Z,91.11
2018-06-28T01:41:32.431Z,91.11
2018-06-28T01:42:32.465Z,91.58
2018-06-28T01:43:32.499Z,91.11
2018-06-28T01:44:32.532Z,91.83
2018-06-28T01:45:32.565Z,93.79
2018-06-28T01:46:32.803Z,92.40
2018-06-28T01:47:32.636Z,92.92
2018-06-28T01:48:32.668Z,92.06
2018-06-28T01:49:32.702Z,91.83
2018-06-28T01:50:32.737Z,92.59
2018-06-28T01:51:32.769Z,92.59
2018-06-28T01:52:32.802Z,92.97
2018-06-28T01:53:32.837Z,92.69
2018-06-28T01:54:33.201Z,92.49
2018-06-28T01:55:32.924Z,92.69
2018-06-28T01:56:33.341Z,93.26
2018-06-28T01:57:33.194Z,93.93
2018-06-28T01:58:33.025Z,94.60
2018-06-28T01:59:33.039Z,94.46
2018-06-28T02:00:33.072Z,94.65
2018-06-28T02:01:33.107Z,94.74
2018-06-28T02:02:33.140Z,95.32
2018-06-28T02:03:33.172Z,97.23
2018-06-28T02:04:33.207Z,96.75
2018-06-28T02:05:33.240Z,95.79
2018-06-28T02:06:33.274Z,95.12
2018-06-28T02:07:33.307Z,95.41
2018-06-28T02:08:33.341Z,95.89
2018-06-28T02:09:33.374Z,96.94
2018-06-28T02:10:33.408Z,98.09
2018-06-28T02:11:33.440Z,97.04
2018-06-28T02:12:33.475Z,96.75
2018-06-28T02:14:33.561Z,97.33
2018-06-28T02:15:33.778Z,97.04
2018-06-28T02:16:33.607Z,96.47
2018-06-28T02:17:33.642Z,97.04
2018-06-28T02:18:33.676Z,95.98
2018-06-28T02:19:33.709Z,97.61
2018-06-28T02:20:33.743Z,97.85
2018-06-28T02:21:33.775Z,97.71
2018-06-28T02:22:33.812Z,96.70
2018-06-28T02:23:33.843Z,97.56
2018-06-28T02:24:33.876Z,97.75
2018-06-28T02:26:33.943Z,97.75
2018-06-28T02:27:33.976Z,97.56
2018-06-28T02:28:34.008Z,98.71
2018-06-28T02:29:34.043Z,98.33
2018-06-28T02:30:34.076Z,98.33
2018-06-28T02:31:34.111Z,98.99
2018-06-28T02:32:34.142Z,98.42
2018-06-28T02:33:34.176Z,99.48
2018-06-28T02:34:34.209Z,99.95
2018-06-28T02:35:34.246Z,98.80
2018-06-28T02:36:34.275Z,98.80
2018-06-28T02:37:34.309Z,98.80
2018-06-28T02:38:34.341Z,99.19
2018-06-28T02:39:34.377Z,99.95
2018-06-28T02:40:34.407Z,98.71
2018-06-28T02:41:34.441Z,99.99
2018-06-28T02:42:34.473Z,99.99
2018-06-28T02:43:34.507Z,98.99
2018-06-28T02:44:34.563Z,99.95
2018-06-28T02:45:34.580Z,98.71
2018-06-28T02:46:34.827Z,99.66
2018-06-28T02:47:34.639Z,99.99
2018-06-28T02:48:34.672Z,99.99
2018-06-28T02:49:34.708Z,99.85
2018-06-28T02:50:34.744Z,99.99
2018-06-28T02:51:40.759Z,99.99
2018-06-28T02:52:34.806Z,99.99
2018-06-28T02:53:34.844Z,99.99
2018-06-28T02:54:34.869Z,99.99
2018-06-28T02:55:34.902Z,99.99
2018-06-28T02:56:34.935Z,99.99
2018-06-28T02:57:34.970Z,99.99
2018-06-28T02:58:35.000Z,99.99
2018-06-28T02:59:35.043Z,99.99
2018-06-28T03:00:35.065Z,99.99
2018-06-28T03:01:35.107Z,99.99
2018-06-28T03:02:35.132Z,99.99
2018-06-28T03:03:35.165Z,99.99
2018-06-28T03:04:35.198Z,99.99
2018-06-28T03:05:35.235Z,99.99
2018-06-28T03:06:35.266Z,99.99
2018-06-28T03:07:35.307Z,99.99
2018-06-28T03:08:35.331Z,99.99
2018-06-28T03:09:35.361Z,99.99
2018-06-28T03:10:35.403Z,99.99
2018-06-28T03:11:35.427Z,99.99
2018-06-28T03:12:35.464Z,99.99
2018-06-28T03:13:35.494Z,99.99
2018-06-28T03:14:35.528Z,99.99
2018-06-28T03:15:35.559Z,99.99
2018-06-28T03:16:35.590Z,99.99
2018-06-28T03:17:35.626Z,99.99
2018-06-28T03:18:35.657Z,99.99
2018-06-28T03:19:35.689Z,99.99
2018-06-28T03:20:35.722Z,99.99
2018-06-28T03:21:35.756Z,99.99
2018-06-28T03:22:35.787Z,99.99
2018-06-28T03:23:35.820Z,99.99
2018-06-28T03:24:35.851Z,99.99
2018-06-28T03:25:35.884Z,99.99
2018-06-28T03:26:35.920Z,99.99
2018-06-28T03:27:35.953Z,99.99
2018-06-28T03:28:35.985Z,99.99
2018-06-28T03:29:36.015Z,99.99
2018-06-28T03:30:36.048Z,99.99
2018-06-28T03:31:36.081Z,99.99
2018-06-28T03:32:36.112Z,99.99
2018-06-28T03:33:36.145Z,99.99
2018-06-28T03:34:36.177Z,99.99
2018-06-28T03:35:36.229Z,99.99
2018-06-28T03:36:36.242Z,99.99
2018-06-28T03:37:36.348Z,99.99
2018-06-28T03:38:36.308Z,99.99
2018-06-28T03:39:36.340Z,99.99
2018-06-28T03:40:36.372Z,99.99
2018-06-28T03:41:36.404Z,99.99
2018-06-28T03:42:36.437Z,99.99
2018-06-28T03:43:36.469Z,99.99
2018-06-28T03:44:36.502Z,99.99
2018-06-28T03:45:36.534Z,99.99
2018-06-28T03:46:36.566Z,99.99
2018-06-28T03:47:36.599Z,99.99
2018-06-28T03:48:36.636Z,99.99
2018-06-28T03:49:36.663Z,99.99
2018-06-28T03:50:36.696Z,99.99
2018-06-28T03:51:36.728Z,99.99
2018-06-28T03:52:36.760Z,99.99
2018-06-28T03:53:36.793Z,99.99
2018-06-28T03:54:36.826Z,99.99
2018-06-28T03:55:36.859Z,99.99
2018-06-28T03:56:36.908Z,99.99
2018-06-28T03:57:36.922Z,99.99
2018-06-28T03:58:36.956Z,99.99
2018-06-28T03:59:36.988Z,99.99
2018-06-28T04:00:37.019Z,99.99
2018-06-28T04:01:37.052Z,99.99
2018-06-28T04:02:37.083Z,99.99
2018-06-28T04:03:37.117Z,99.99
2018-06-28T04:04:37.149Z,99.99
2018-06-28T04:05:37.181Z,99.99
2018-06-28T04:06:37.232Z,99.99
2018-06-28T04:07:37.246Z,99.99
2018-06-28T04:08:37.277Z,99.99
2018-06-28T04:09:37.311Z,99.99
2018-06-28T04:10:37.343Z,99.99
2018-06-28T04:11:37.376Z,99.99
2018-06-28T04:12:37.410Z,99.99
2018-06-28T04:13:37.439Z,99.99
2018-06-28T04:14:37.473Z,99.99
2018-06-28T04:15:37.509Z,99.99
2018-06-28T04:16:37.562Z,99.99
2018-06-28T04:17:37.569Z,99.99
2018-06-28T04:18:37.601Z,99.99
2018-06-28T04:19:37.634Z,99.99
2018-06-28T04:20:37.666Z,99.99
2018-06-28T04:21:37.699Z,99.99
2018-06-28T04:22:37.732Z,99.99
2018-06-28T04:23:37.766Z,99.99
2018-06-28T04:24:37.796Z,99.99
2018-06-28T04:25:37.829Z,99.99
2018-06-28T04:26:37.862Z,99.99
2018-06-28T04:27:37.895Z,99.99
2018-06-28T04:28:37.926Z,99.99
2018-06-28T04:29:37.958Z,99.99
2018-06-28T04:30:37.994Z,99.99
2018-06-28T04:31:38.028Z,99.99
2018-06-28T04:32:38.057Z,99.99
2018-06-28T04:33:38.091Z,99.99
2018-06-28T04:34:38.123Z,99.99
2018-06-28T04:35:38.160Z,99.99
2018-06-28T04:36:38.188Z,99.99
2018-06-28T04:37:38.221Z,99.99
2018-06-28T04:38:38.264Z,99.99
2018-06-28T04:39:38.287Z,99.99
2018-06-28T04:40:38.320Z,99.99
2018-06-28T04:41:38.352Z,99.99
2018-06-28T04:42:38.385Z,99.99
2018-06-28T04:43:38.417Z,99.90
2018-06-28T04:44:38.450Z,99.71
2018-06-28T04:45:38.484Z,98.95
2018-06-28T04:46:38.516Z,97.80
2018-06-28T04:47:38.551Z,98.75
2018-06-28T04:48:38.582Z,97.61
2018-06-28T04:49:38.615Z,97.80
2018-06-28T04:50:38.649Z,98.57
2018-06-28T04:51:38.704Z,99.38
2018-06-28T04:52:38.736Z,98.90
2018-06-28T04:53:38.748Z,96.99
2018-06-28T04:54:39.009Z,95.94
2018-06-28T04:55:38.813Z,95.75
2018-06-28T04:56:38.848Z,96.13
2018-06-28T04:57:38.879Z,96.61
2018-06-28T04:58:38.914Z,97.47
2018-06-28T04:59:38.947Z,97.08
2018-06-28T05:00:38.979Z,95.65
2018-06-28T05:01:39.012Z,96.32
2018-06-28T05:02:39.046Z,95.46
2018-06-28T05:03:39.079Z,95.36
2018-06-28T05:04:39.112Z,96.13
2018-06-28T05:05:39.145Z,95.65
2018-06-28T05:06:39.178Z,94.84
2018-06-28T05:07:39.212Z,94.65
2018-06-28T05:08:39.245Z,94.74
2018-06-28T05:09:39.278Z,94.74
2018-06-28T05:10:39.313Z,93.88
2018-06-28T05:11:39.345Z,93.88
2018-06-28T05:12:39.379Z,93.69
2018-06-28T05:13:39.412Z,93.30
2018-06-28T05:14:39.446Z,93.88
2018-06-28T05:15:39.479Z,93.74
2018-06-28T05:16:39.512Z,92.58
2018-06-28T05:17:39.545Z,93.16
2018-06-28T05:18:39.580Z,92.30
2018-06-28T05:19:39.613Z,91.05
2018-06-28T05:20:39.647Z,91.53
2018-06-28T05:21:39.681Z,91.44
2018-06-28T05:22:39.715Z,91.05
2018-06-28T05:23:39.748Z,91.92
2018-06-28T05:24:39.781Z,92.58
2018-06-28T05:25:39.816Z,91.92
2018-06-28T05:26:39.850Z,90.77
2018-06-28T05:27:39.884Z,91.29
2018-06-28T05:28:39.917Z,90.48
2018-06-28T05:29:39.950Z,90.53
2018-06-28T05:30:39.986Z,89.18
2018-06-28T05:31:40.021Z,89.86
2018-06-28T05:32:40.053Z,90.14
2018-06-28T05:33:40.087Z,89.47
2018-06-28T05:34:40.128Z,89.57
2018-06-28T05:35:40.154Z,88.13
2018-06-28T05:36:40.192Z,88.13
2018-06-28T05:37:40.223Z,87.17
2018-06-28T05:38:40.257Z,87.79
2018-06-28T05:39:40.291Z,87.70
2018-06-28T05:40:40.327Z,86.16
2018-06-28T05:41:40.359Z,85.88
2018-06-28T05:42:40.393Z,85.58
2018-06-28T05:43:40.428Z,85.97
2018-06-28T05:44:40.462Z,87.12
2018-06-28T05:45:40.497Z,87.31
2018-06-28T05:46:40.531Z,87.55
2018-06-28T05:47:40.566Z,85.92
2018-06-28T05:48:40.599Z,86.07
2018-06-28T05:49:40.635Z,85.82
2018-06-28T05:50:40.668Z,86.11
2018-06-28T05:51:40.704Z,84.77
2018-06-28T05:52:40.738Z,84.67
2018-06-28T05:53:40.771Z,83.37
2018-06-28T05:54:40.808Z,83.27
2018-06-28T05:55:40.843Z,83.37
2018-06-28T05:56:40.880Z,82.98
2018-06-28T05:57:40.913Z,82.60
2018-06-28T05:58:40.946Z,82.41
2018-06-28T05:59:40.981Z,82.51
2018-06-28T06:00:41.015Z,82.51
2018-06-28T06:01:41.050Z,82.16
2018-06-28T06:02:41.086Z,82.26
2018-06-28T06:03:41.120Z,82.35
2018-06-28T06:04:41.155Z,81.97
2018-06-28T06:05:41.189Z,82.84
2018-06-28T06:06:41.225Z,82.45
2018-06-28T06:07:41.261Z,83.22
2018-06-28T06:08:41.294Z,82.64
2018-06-28T06:09:41.329Z,82.26
2018-06-28T06:10:41.365Z,82.84
2018-06-28T06:11:41.401Z,82.93
2018-06-28T06:12:41.435Z,82.35
2018-06-28T06:13:41.471Z,82.16
2018-06-28T06:14:41.508Z,82.10
2018-06-28T06:15:41.544Z,81.72
2018-06-28T06:16:41.578Z,81.63
2018-06-28T06:17:41.612Z,81.15
2018-06-28T06:18:41.649Z,81.05
2018-06-28T06:19:41.698Z,80.51
2018-06-28T06:20:41.717Z,80.13
2018-06-28T06:21:41.752Z,80.32
2018-06-28T06:22:41.788Z,80.42
2018-06-28T06:23:41.823Z,80.22
2018-06-28T06:24:41.858Z,79.84
2018-06-28T06:25:41.894Z,79.65
2018-06-28T06:26:41.931Z,78.94
2018-06-28T06:27:41.965Z,79.42
2018-06-28T06:28:42.003Z,78.75
2018-06-28T06:29:42.036Z,79.71
2018-06-28T06:30:42.072Z,79.99
2018-06-28T06:31:42.108Z,79.80
2018-06-28T06:32:42.142Z,79.99
2018-06-28T06:33:42.177Z,79.55
2018-06-28T06:34:42.214Z,80.61
2018-06-28T06:35:42.250Z,80.51
2018-06-28T06:36:42.284Z,79.75
2018-06-28T06:37:42.321Z,80.22
2018-06-28T06:38:42.360Z,80.32
2018-06-28T06:39:42.394Z,80.32
2018-06-28T06:40:42.428Z,80.22
2018-06-28T06:41:42.465Z,79.65
2018-06-28T06:42:42.499Z,79.46
2018-06-28T06:43:42.534Z,80.13
2018-06-28T06:44:42.573Z,79.50
2018-06-28T06:45:42.605Z,80.75
2018-06-28T06:46:42.642Z,80.46
2018-06-28T06:47:42.679Z,81.42
2018-06-28T06:48:42.718Z,80.07
2018-06-28T06:49:42.750Z,80.65
2018-06-28T06:50:42.785Z,81.32
2018-06-28T06:51:42.824Z,82.29
2018-06-28T06:52:42.857Z,81.81
2018-06-28T06:53:42.898Z,80.55
2018-06-28T06:54:42.930Z,81.23
2018-06-28T06:55:42.965Z,80.94
2018-06-28T06:56:43.001Z,81.90
2018-06-28T06:57:43.047Z,80.98
2018-06-28T06:58:43.076Z,79.98
2018-06-28T06:59:43.111Z,80.21
2018-06-28T07:00:43.149Z,79.73
2018-06-28T07:01:43.182Z,79.60
2018-06-28T07:02:43.319Z,80.11
2018-06-28T07:03:43.255Z,79.82
2018-06-28T07:04:43.291Z,79.35
2018-06-28T07:05:43.327Z,77.90
2018-06-28T07:06:43.362Z,78.52
2018-06-28T07:07:43.400Z,78.23
2018-06-28T07:08:43.436Z,78.03
2018-06-28T07:09:43.471Z,76.78
2018-06-28T07:10:43.509Z,76.53
2018-06-28T07:11:43.544Z,75.38
2018-06-28T07:12:43.581Z,75.28
2018-06-28T07:13:43.617Z,75.03
2018-06-28T07:14:43.656Z,74.51
2018-06-28T07:15:43.691Z,75.19
2018-06-28T07:16:43.727Z,75.76
2018-06-28T07:17:43.763Z,74.84
2018-06-28T07:18:43.804Z,74.26
2018-06-28T07:19:43.837Z,74.16
2018-06-28T07:20:43.872Z,73.88
2018-06-28T07:21:43.913Z,74.16
2018-06-28T07:22:43.952Z,74.16
2018-06-28T07:23:44.021Z,72.72
2018-06-28T07:24:44.020Z,72.95
2018-06-28T07:25:44.056Z,73.33
2018-06-28T07:26:44.094Z,73.33
2018-06-28T07:27:44.130Z,73.43
2018-06-28T07:28:44.208Z,73.43
2018-06-28T07:29:44.221Z,73.82
2018-06-28T07:30:44.241Z,73.53
2018-06-28T07:31:44.282Z,72.95
2018-06-28T07:32:44.315Z,72.85
2018-06-28T07:33:44.352Z,73.43
2018-06-28T07:34:44.389Z,73.62
2018-06-28T07:35:44.427Z,74.20
2018-06-28T07:36:44.463Z,73.14
2018-06-28T07:37:44.500Z,73.53
2018-06-28T07:38:44.538Z,74.20
2018-06-28T07:39:44.575Z,73.53
2018-06-28T07:40:44.613Z,73.33
2018-06-28T07:41:44.649Z,73.14
2018-06-28T07:42:44.687Z,72.56
2018-06-28T07:43:44.726Z,72.69
2018-06-28T07:44:44.761Z,71.98
2018-06-28T07:45:44.799Z,71.79
2018-06-28T07:46:44.845Z,71.98
2018-06-28T07:47:44.873Z,72.37
2018-06-28T07:48:44.914Z,72.66
2018-06-28T07:49:45.172Z,73.14
2018-06-28T07:50:45.013Z,73.05
2018-06-28T07:51:45.031Z,72.02
2018-06-28T07:52:45.691Z,72.60
2018-06-28T07:53:45.097Z,72.12
2018-06-28T07:54:45.356Z,72.18
2018-06-28T07:55:45.173Z,72.56
2018-06-28T07:56:45.210Z,71.73
2018-06-28T07:57:45.247Z,70.96
2018-06-28T07:58:45.285Z,70.96
2018-06-28T07:59:45.326Z,70.32
2018-06-28T08:00:45.361Z,69.93
2018-06-28T08:01:45.398Z,69.93
2018-06-28T08:02:45.498Z,69.93
2018-06-28T08:03:45.473Z,69.93
2018-06-28T08:04:45.511Z,70.32
2018-06-28T08:05:45.550Z,70.32
2018-06-28T08:06:45.589Z,69.87
2018-06-28T08:07:45.626Z,69.97
2018-06-28T08:08:45.662Z,69.13
2018-06-28T08:09:45.772Z,68.94
2018-06-28T08:10:45.737Z,68.07
2018-06-28T08:11:45.777Z,67.01
2018-06-28T08:12:45.814Z,67.69
2018-06-28T08:13:45.852Z,67.69
2018-06-28T08:14:45.890Z,67.40
2018-06-28T08:15:45.929Z,66.82
2018-06-28T08:16:45.966Z,67.97
2018-06-28T08:17:46.005Z,67.78
2018-06-28T08:18:46.044Z,68.65
2018-06-28T08:19:46.081Z,67.78
2018-06-28T08:20:46.119Z,67.78
2018-06-28T08:21:46.159Z,69.26
2018-06-28T08:22:46.198Z,67.72
2018-06-28T08:23:46.236Z,67.24
2018-06-28T08:24:46.274Z,66.46
2018-06-28T08:25:46.312Z,66.01
2018-06-28T08:26:46.351Z,66.40
2018-06-28T08:28:46.434Z,66.50
2018-06-28T08:29:46.468Z,66.50
2018-06-28T08:30:46.510Z,65.47
2018-06-28T08:31:46.546Z,63.85
2018-06-28T08:32:46.585Z,60.69
2018-06-28T08:33:46.624Z,59.82
2018-06-28T08:34:46.663Z,58.78
2018-06-28T08:35:46.719Z,58.20
2018-06-28T08:36:46.742Z,57.53
2018-06-28T08:37:46.781Z,56.65
2018-06-28T08:38:46.819Z,57.04
2018-06-28T08:39:46.860Z,55.30
2018-06-28T08:40:46.900Z,56.59
2018-06-28T08:41:46.941Z,55.62
2018-06-28T08:42:46.977Z,56.77
2018-06-28T08:43:47.018Z,56.23
2018-06-28T08:44:47.056Z,55.26
2018-06-28T08:45:47.096Z,54.41
2018-06-28T08:46:47.137Z,53.92
2018-06-28T08:47:47.397Z,52.76
2018-06-28T08:48:47.216Z,52.95
2018-06-28T08:49:47.257Z,53.15
2018-06-28T08:50:47.299Z,53.17
2018-06-28T08:51:47.337Z,52.95
2018-06-28T08:52:47.376Z,52.59
2018-06-28T08:53:47.417Z,52.40
2018-06-28T08:54:47.457Z,51.91
2018-06-28T08:55:47.496Z,52.86
2018-06-28T08:56:47.537Z,52.56
2018-06-28T08:57:47.657Z,52.40
2018-06-28T08:58:47.616Z,52.95
2018-06-28T08:59:47.658Z,52.95
2018-06-28T09:00:47.698Z,51.91
2018-06-28T09:01:47.739Z,51.98
2018-06-28T09:02:47.781Z,52.23
2018-06-28T09:03:47.819Z,51.45
2018-06-28T09:04:47.860Z,51.16
2018-06-28T09:05:47.961Z,50.29
2018-06-28T09:06:47.941Z,49.90
2018-06-28T09:07:47.982Z,50.48
2018-06-28T09:08:48.025Z,50.77
2018-06-28T09:09:48.065Z,49.99
2018-06-28T09:10:48.104Z,50.19
2018-06-28T09:11:48.146Z,51.33
2018-06-28T09:12:48.186Z,51.81
2018-06-28T09:13:48.227Z,50.68
2018-06-28T09:14:48.268Z,51.16
2018-06-28T09:15:48.309Z,50.58
2018-06-28T09:16:48.350Z,50.58
2018-06-28T09:17:48.391Z,51.14
2018-06-28T09:18:48.432Z,50.87
2018-06-28T09:19:48.473Z,50.51
2018-06-28T09:20:48.513Z,50.31
2018-06-28T09:21:48.554Z,49.07
2018-06-28T09:22:48.608Z,49.00
2018-06-28T09:23:48.638Z,46.86
2018-06-28T09:24:48.678Z,46.50
2018-06-28T09:25:48.722Z,46.86
2018-06-28T09:26:48.761Z,47.83
2018-06-28T09:27:48.805Z,47.54
2018-06-28T09:28:48.843Z,47.83
2018-06-28T09:29:48.885Z,48.03
2018-06-28T09:30:48.928Z,47.74
2018-06-28T09:31:48.969Z,47.64
2018-06-28T09:32:49.010Z,46.88
2018-06-28T09:33:49.052Z,45.62
2018-06-28T09:34:49.092Z,45.81
2018-06-28T09:35:49.193Z,46.77
2018-06-28T09:36:49.176Z,47.34
2018-06-28T09:37:49.218Z,46.11
2018-06-28T09:38:49.260Z,45.64
2018-06-28T09:39:49.301Z,46.51
2018-06-28T09:40:49.343Z,46.61
2018-06-28T09:41:49.385Z,45.84
2018-06-28T09:42:49.428Z,45.81
2018-06-28T09:43:49.474Z,46.08
2018-06-28T09:46:49.596Z,45.79
2018-06-28T09:47:49.638Z,46.64
2018-06-28T09:48:49.700Z,47.03
2018-06-28T09:49:49.721Z,47.01
2018-06-28T09:50:49.763Z,46.91
2018-06-28T09:51:49.805Z,47.32
2018-06-28T09:52:49.847Z,47.23
2018-06-28T09:53:49.889Z,46.67
2018-06-28T09:54:50.040Z,46.28
2018-06-28T09:55:49.973Z,45.62
2018-06-28T09:56:50.032Z,45.23
2018-06-28T09:57:50.056Z,45.52
2018-06-28T09:58:50.098Z,45.50
2018-06-28T09:59:50.747Z,46.37
2018-06-28T10:00:50.402Z,46.30
2018-06-28T10:01:50.223Z,45.62
2018-06-28T10:02:50.265Z,45.47
2018-06-28T10:03:50.307Z,44.79
2018-06-28T10:04:50.348Z,44.76
2018-06-28T10:05:50.391Z,44.65
2018-06-28T10:06:50.442Z,45.72
2018-06-28T10:07:50.476Z,46.01
2018-06-28T10:08:50.519Z,44.89
2018-06-28T10:09:50.560Z,44.10
2018-06-28T10:10:50.601Z,44.40
2018-06-28T10:11:50.645Z,43.15
2018-06-28T10:12:50.687Z,43.40
2018-06-28T10:13:50.729Z,43.44
2018-06-28T10:14:50.835Z,43.62
2018-06-28T10:15:50.815Z,44.13
2018-06-28T10:16:50.857Z,44.79
2018-06-28T10:17:50.926Z,45.37
2018-06-28T10:18:50.944Z,45.57
2018-06-28T10:19:50.984Z,44.32
2018-06-28T10:20:51.027Z,44.42
2018-06-28T10:21:51.071Z,43.25
2018-06-28T10:22:51.113Z,43.66
2018-06-28T10:23:51.156Z,44.13
2018-06-28T10:24:51.199Z,43.57
2018-06-28T10:25:51.244Z,42.98
2018-06-28T10:26:51.285Z,42.61
2018-06-28T10:27:51.329Z,41.83
2018-06-28T10:28:51.371Z,42.22
2018-06-28T10:29:51.416Z,42.51
2018-06-28T10:30:51.458Z,41.83
2018-06-28T10:31:51.500Z,43.37
2018-06-28T10:32:51.544Z,43.71
2018-06-28T10:33:51.591Z,44.96
2018-06-28T10:34:51.631Z,45.91
2018-06-28T10:35:51.674Z,46.15
2018-06-28T10:36:51.717Z,46.28
2018-06-28T10:37:51.760Z,46.50
2018-06-28T10:38:51.804Z,45.52
2018-06-28T10:39:51.847Z,45.72
2018-06-28T10:40:51.922Z,46.03
2018-06-28T10:41:51.932Z,45.95
2018-06-28T10:42:51.975Z,45.47
2018-06-28T10:43:52.018Z,44.64
2018-06-28T10:44:52.061Z,44.27
2018-06-28T10:45:52.104Z,44.76
2018-06-28T10:46:52.148Z,44.13
2018-06-28T10:47:52.191Z,45.47
2018-06-28T10:48:52.235Z,45.59
2018-06-28T10:49:52.276Z,44.69
2018-06-28T10:50:52.321Z,44.98
2018-06-28T10:51:52.364Z,45.00
2018-06-28T10:52:52.406Z,45.88
2018-06-28T10:53:52.491Z,44.81
2018-06-28T10:54:52.496Z,44.79
2018-06-28T10:55:52.537Z,44.89
2018-06-28T10:56:52.578Z,44.76
2018-06-28T10:57:52.623Z,44.69
2018-06-28T10:58:52.665Z,42.20
2018-06-28T10:59:52.709Z,42.49
2018-06-28T11:00:52.750Z,42.88
2018-06-28T11:01:52.816Z,39.86
2018-06-28T11:03:52.882Z,42.34
2018-06-28T11:04:52.925Z,41.46
2018-06-28T11:05:52.968Z,42.12
2018-06-28T11:06:53.014Z,42.59
2018-06-28T11:07:53.057Z,42.18
2018-06-28T11:08:53.101Z,43.13
2018-06-28T11:09:53.145Z,43.81
2018-06-28T11:10:53.188Z,43.84
2018-06-28T11:11:53.234Z,42.71
2018-06-28T11:12:53.277Z,42.16
2018-06-28T11:13:53.321Z,41.77
2018-06-28T11:14:53.365Z,39.07
2018-06-28T11:15:53.409Z,36.91
2018-06-28T11:16:53.452Z,35.11
2018-06-28T11:17:53.498Z,32.39
2018-06-28T11:18:53.554Z,31.73
2018-06-28T11:19:53.592Z,31.31
2018-06-28T11:20:54.649Z,33.75
2018-06-28T11:21:53.688Z,34.44
2018-06-28T11:22:53.734Z,33.77
2018-06-28T11:23:53.781Z,32.69
2018-06-28T11:25:36.398Z,35.25
2018-06-28T11:26:36.452Z,36.30
2018-06-28T11:27:36.489Z,37.73
2018-06-28T11:28:36.538Z,38.12
2018-06-28T11:29:36.588Z,39.72
2018-06-28T11:30:36.635Z,41.95
2018-06-28T11:31:36.683Z,42.44
2018-06-28T11:32:36.730Z,41.66
2018-06-28T11:33:36.779Z,41.93
2018-06-28T11:34:36.827Z,43.08
2018-06-28T11:35:36.875Z,43.35
2018-06-28T11:36:36.920Z,43.84
2018-06-28T11:37:36.970Z,44.79
2018-06-28T11:38:37.015Z,44.79
2018-06-28T11:39:37.062Z,45.35
2018-06-28T11:40:37.107Z,45.18
2018-06-28T11:41:37.152Z,45.47
2018-06-28T11:42:37.200Z,44.90
2018-06-28T11:43:37.244Z,45.10
2018-06-28T11:44:37.290Z,44.71
2018-06-28T11:45:37.336Z,43.85
2018-06-28T11:46:37.380Z,43.19
2018-06-28T11:47:37.442Z,43.57
2018-06-28T11:48:37.469Z,44.62
2018-06-28T11:49:37.514Z,44.10
2018-06-28T11:50:37.557Z,43.47
2018-06-28T11:51:37.602Z,42.83
2018-06-28T11:52:37.648Z,41.77
2018-06-28T11:53:37.692Z,40.27
2018-06-28T11:54:37.739Z,39.94
2018-06-28T11:55:37.782Z,39.67
2018-06-28T11:56:37.827Z,40.27
2018-06-28T11:57:37.872Z,38.65
2018-06-28T11:58:37.918Z,39.28
2018-06-28T11:59:37.964Z,41.09
2018-06-28T12:00:38.010Z,41.28
2018-06-28T12:01:38.054Z,39.23
2018-06-28T12:02:38.100Z,38.67
2018-06-28T12:03:38.147Z,38.28
2018-06-28T12:04:38.192Z,39.15
2018-06-28T12:05:38.279Z,39.43
2018-06-28T12:06:38.284Z,39.92
2018-06-28T12:07:38.330Z,40.66
2018-06-28T12:08:38.375Z,40.92
2018-06-28T12:09:38.424Z,41.87
2018-06-28T12:10:38.468Z,43.19
2018-06-28T12:11:38.562Z,43.95
2018-06-28T12:12:38.559Z,45.67
2018-06-28T12:13:38.606Z,46.50
2018-06-28T12:14:38.651Z,47.17
2018-06-28T12:16:21.254Z,48.58
2018-06-28T12:17:21.300Z,49.76
2018-06-28T12:18:21.342Z,49.63
2018-06-28T12:19:21.387Z,50.02
2018-06-28T12:20:21.430Z,51.93
2018-06-28T12:21:21.475Z,52.42
2018-06-28T12:22:21.522Z,52.20
2018-06-28T12:23:21.562Z,52.88
2018-06-28T12:24:21.605Z,52.30
2018-06-28T12:25:21.647Z,52.50
2018-06-28T12:26:21.691Z,52.66
2018-06-28T12:27:21.733Z,53.08
2018-06-28T12:28:21.776Z,52.56
2018-06-28T12:29:21.819Z,53.08
2018-06-28T12:30:21.861Z,52.88
2018-06-28T12:31:21.904Z,52.91
2018-06-28T12:32:21.943Z,52.45
2018-06-28T12:33:21.988Z,50.82
2018-06-28T12:34:22.029Z,50.38
2018-06-28T12:35:22.070Z,49.34
2018-06-28T12:36:22.111Z,48.78
2018-06-28T12:37:22.153Z,46.73
2018-06-28T12:38:22.198Z,46.51
2018-06-28T12:39:22.238Z,44.94
2018-06-28T12:40:22.284Z,42.44
2018-06-28T12:41:22.323Z,42.91
2018-06-28T12:42:22.367Z,44.87
2018-06-28T12:43:22.409Z,46.39
2018-06-28T12:44:22.455Z,47.05
2018-06-28T12:45:22.500Z,48.58
2018-06-28T12:46:22.597Z,48.68
2018-06-28T12:47:22.587Z,48.95
2018-06-28T12:48:22.632Z,50.09
2018-06-28T12:49:22.677Z,50.56
2018-06-28T12:50:22.721Z,50.48
2018-06-28T12:51:22.764Z,50.56
2018-06-28T12:52:22.808Z,51.50
2018-06-28T12:53:22.851Z,51.79
2018-06-28T12:54:22.976Z,51.79
2018-06-28T12:55:22.938Z,52.06
2018-06-28T12:56:22.984Z,52.84
2018-06-28T12:57:23.026Z,52.94
2018-06-28T12:58:23.069Z,53.10
2018-06-28T12:59:23.115Z,53.73
2018-06-28T13:00:23.159Z,54.70